createdAt,value
2023-03-28T00:01:08.235Z,1.28
2023-03-28T00:03:39.780Z,1.34
2023-03-28T00:06:16.511Z,1.26
2023-03-28T00:08:46.156Z,1.33
2023-03-28T00:11:20.444Z,1.39
2023-03-28T00:14:00.975Z,1.42
2023-03-28T00:16:47.470Z,1.28
2023-03-28T00:19:18.857Z,1.19
2023-03-28T00:21:49.207Z,1.26
2023-03-28T00:24:21.512Z,1.23
2023-03-28T00:26:54.493Z,1.19
2023-03-28T00:29:23.279Z,1.12
2023-03-28T00:31:52.211Z,0.97
2023-03-28T00:34:19.487Z,1.08
2023-03-28T00:36:47.188Z,1.07
2023-03-28T00:39:14.498Z,1.03
2023-03-28T00:41:44.489Z,1.13
2023-03-28T00:44:41.846Z,1.10
2023-03-28T00:47:28.091Z,1.05
2023-03-28T00:50:00.729Z,0.89
2023-03-28T00:52:31.044Z,0.41
2023-03-28T00:54:59.671Z,0.34
2023-03-28T00:57:28.751Z,0.22
2023-03-28T00:59:56.229Z,0.29
2023-03-28T01:02:24.181Z,0.07
2023-03-28T01:04:59.528Z,0.14
2023-03-28T01:07:33.302Z,0.21
2023-03-28T01:10:04.314Z,0.23
2023-03-28T01:12:33.350Z,0.30
2023-03-28T01:15:03.197Z,0.55
2023-03-28T01:17:41.524Z,0.72
2023-03-28T01:21:07.729Z,0.85
2023-03-28T01:23:53.446Z,0.97
2023-03-28T01:26:45.881Z,1.07
2023-03-28T01:29:19.784Z,1.07
2023-03-28T01:32:22.493Z,1.26
2023-03-28T01:35:03.577Z,1.39
2023-03-28T01:37:45.949Z,1.39
2023-03-28T01:40:35.777Z,1.38
2023-03-28T01:43:23.595Z,1.42
2023-03-28T01:46:18.827Z,1.44
2023-03-28T01:48:54.144Z,1.51
2023-03-28T01:51:25.037Z,1.40
2023-03-28T01:54:06.624Z,1.52
2023-03-28T01:56:49.282Z,1.46
2023-03-28T01:59:30.604Z,1.45
2023-03-28T02:02:33.105Z,1.58
2023-03-28T02:05:15.550Z,1.73
2023-03-28T02:07:46.423Z,1.52
2023-03-28T02:10:17.348Z,1.49
2023-03-28T02:13:23.002Z,1.67
2023-03-28T02:15:59.099Z,1.36
2023-03-28T02:18:55.760Z,1.58
2023-03-28T02:22:01.061Z,1.58
2023-03-28T02:24:31.724Z,1.53
2023-03-28T02:27:28.449Z,1.19
2023-03-28T02:30:09.971Z,1.37
2023-03-28T02:32:38.810Z,1.25
2023-03-28T02:35:07.573Z,1.45
2023-03-28T02:37:51.206Z,1.66
2023-03-28T02:40:46.645Z,1.50
2023-03-28T02:43:35.595Z,1.50
2023-03-28T02:46:06.233Z,1.59
2023-03-28T02:48:42.656Z,1.44
2023-03-28T02:51:49.023Z,1.41
2023-03-28T02:54:54.828Z,1.42
2023-03-28T02:57:42.964Z,1.14
2023-03-28T03:00:16.014Z,1.21
2023-03-28T03:02:45.139Z,1.24
2023-03-28T03:05:13.975Z,1.35
2023-03-28T03:07:42.451Z,1.18
2023-03-28T03:10:12.044Z,1.12
2023-03-28T03:12:39.992Z,1.17
2023-03-28T03:15:08.002Z,1.25
2023-03-28T03:17:55.900Z,1.12
2023-03-28T03:20:34.801Z,1.37
2023-03-28T03:23:03.951Z,1.25
2023-03-28T03:25:34.631Z,1.21
2023-03-28T03:28:28.344Z,1.11
2023-03-28T03:30:55.938Z,1.23
2023-03-28T03:33:41.704Z,1.14
2023-03-28T03:36:12.846Z,1.12
2023-03-28T03:38:42.022Z,1.10
2023-03-28T03:41:16.556Z,1.08
2023-03-28T03:43:45.290Z,0.93
2023-03-28T03:46:14.513Z,0.88
2023-03-28T03:48:49.472Z,0.81
2023-03-28T03:51:17.940Z,0.72
2023-03-28T03:53:46.818Z,0.56
2023-03-28T03:56:17.778Z,0.36
2023-03-28T03:58:57.572Z,0.34
2023-03-28T04:01:30.284Z,-0.01
2023-03-28T04:04:07.883Z,-0.31
2023-03-28T04:06:58.161Z,-0.28
2023-03-28T04:09:27.365Z,-0.65
2023-03-28T04:12:00.991Z,-0.80
2023-03-28T04:14:28.750Z,-0.78
2023-03-28T04:17:16.312Z,-0.95
2023-03-28T04:19:46.698Z,-0.84
2023-03-28T04:22:14.370Z,-0.87
2023-03-28T04:24:50.078Z,-0.89
2023-03-28T04:27:31.530Z,-0.80
2023-03-28T04:30:00.733Z,-0.71
2023-03-28T04:32:54.410Z,-0.89
2023-03-28T04:35:29.811Z,-0.85
2023-03-28T04:38:00.144Z,-0.94
2023-03-28T04:40:28.290Z,-0.94
2023-03-28T04:43:18.724Z,-1.05
2023-03-28T04:45:56.490Z,-0.96
2023-03-28T04:48:25.828Z,-1.18
2023-03-28T04:50:54.297Z,-1.18
2023-03-28T04:53:22.538Z,-1.00
2023-03-28T04:56:28.128Z,-1.25
2023-03-28T04:58:56.495Z,-1.19
2023-03-28T05:01:27.819Z,-1.11
2023-03-28T05:04:13.648Z,-1.04
2023-03-28T05:06:41.334Z,-1.03
2023-03-28T05:09:14.440Z,-1.00
2023-03-28T05:11:42.727Z,-0.58
2023-03-28T05:14:10.882Z,-0.60
2023-03-28T05:16:44.642Z,-0.40
2023-03-28T05:19:44.097Z,-0.33
2023-03-28T05:22:20.795Z,-0.11
2023-03-28T05:24:49.633Z,0.66
2023-03-28T05:27:19.219Z,1.10
2023-03-28T05:29:47.481Z,1.75
2023-03-28T05:32:15.143Z,1.22
2023-03-28T05:34:42.555Z,1.34
2023-03-28T05:37:10.562Z,1.00
2023-03-28T05:39:48.731Z,1.69
2023-03-28T05:42:17.160Z,2.11
2023-03-28T05:44:44.488Z,1.66
2023-03-28T05:47:21.058Z,1.33
2023-03-28T05:49:48.491Z,1.02
2023-03-28T05:52:16.291Z,1.37
2023-03-28T05:54:52.124Z,1.84
2023-03-28T05:57:22.731Z,1.96
2023-03-28T05:59:50.096Z,2.71
2023-03-28T06:02:23.659Z,3.30
2023-03-28T06:04:57.965Z,3.85
2023-03-28T06:07:39.282Z,5.76
2023-03-28T06:10:12.447Z,6.29
2023-03-28T06:12:41.304Z,4.63
2023-03-28T06:15:10.043Z,3.74
2023-03-28T06:17:42.772Z,3.68
2023-03-28T06:20:10.506Z,3.39
2023-03-28T06:22:38.494Z,7.26
2023-03-28T06:25:11.224Z,11.49
2023-03-28T06:27:38.847Z,13.49
2023-03-28T06:30:07.225Z,13.91
2023-03-28T06:32:43.055Z,14.97
2023-03-28T06:35:10.818Z,16.67
2023-03-28T06:37:38.367Z,17.52
2023-03-28T06:40:09.138Z,16.55
2023-03-28T06:42:36.847Z,15.13
2023-03-28T06:45:33.519Z,17.95
2023-03-28T06:48:04.845Z,16.67
2023-03-28T06:50:59.185Z,16.69
2023-03-28T06:53:27.869Z,14.91
2023-03-28T06:55:55.726Z,14.11
2023-03-28T06:58:24.056Z,10.38
2023-03-28T07:01:02.458Z,9.97
2023-03-28T07:03:42.360Z,12.02
2023-03-28T07:06:10.748Z,14.60
2023-03-28T07:08:38.869Z,15.66
2023-03-28T07:11:06.864Z,13.01
2023-03-28T07:13:34.660Z,12.99
2023-03-28T07:16:12.498Z,10.27
2023-03-28T07:18:41.752Z,9.61
2023-03-28T07:21:17.015Z,7.99
2023-03-28T07:23:44.930Z,6.86
2023-03-28T07:26:15.694Z,7.00
2023-03-28T07:28:43.424Z,7.24
2023-03-28T07:31:11.325Z,6.24
2023-03-28T07:33:39.374Z,4.83
2023-03-28T07:36:15.157Z,6.68
2023-03-28T07:38:47.262Z,11.19
2023-03-28T07:41:16.586Z,11.35
2023-03-28T07:43:44.818Z,7.58
2023-03-28T07:46:15.111Z,7.56
2023-03-28T07:48:44.013Z,7.18
2023-03-28T07:51:11.600Z,8.30
2023-03-28T07:53:39.826Z,10.30
2023-03-28T07:56:12.303Z,9.96
2023-03-28T07:58:58.948Z,9.97
2023-03-28T08:01:26.508Z,10.35
2023-03-28T08:04:01.422Z,12.32
2023-03-28T08:06:40.708Z,13.96
2023-03-28T08:09:10.647Z,15.19
2023-03-28T08:11:42.030Z,14.69
2023-03-28T08:14:15.546Z,13.54
2023-03-28T08:16:44.401Z,15.37
2023-03-28T08:19:12.593Z,13.30
2023-03-28T08:22:16.757Z,13.72
2023-03-28T08:24:53.756Z,13.25
2023-03-28T08:27:23.472Z,14.04
2023-03-28T08:29:54.707Z,14.54
2023-03-28T08:32:22.090Z,12.90
2023-03-28T08:34:49.709Z,12.05
2023-03-28T08:37:22.916Z,14.02
2023-03-28T08:39:50.937Z,14.69
2023-03-28T08:42:28.638Z,14.83
2023-03-28T08:45:37.005Z,14.54
2023-03-28T08:48:07.252Z,12.07
2023-03-28T08:50:41.683Z,10.03
2023-03-28T08:53:24.716Z,8.31
2023-03-28T08:55:53.774Z,9.12
2023-03-28T08:58:23.564Z,7.90
2023-03-28T09:00:52.361Z,7.20
2023-03-28T09:03:22.484Z,6.20
2023-03-28T09:06:18.082Z,5.13
2023-03-28T09:09:13.184Z,7.16
2023-03-28T09:12:16.900Z,8.78
2023-03-28T09:14:51.978Z,8.62
2023-03-28T09:17:54.098Z,6.88
2023-03-28T09:21:12.604Z,5.53
2023-03-28T09:23:58.129Z,4.26
2023-03-28T09:27:20.677Z,4.07
2023-03-28T09:29:50.530Z,2.95
2023-03-28T09:32:26.506Z,2.78
2023-03-28T09:34:54.163Z,2.85
2023-03-28T09:37:38.191Z,5.02
2023-03-28T09:40:17.842Z,9.13
2023-03-28T09:43:14.311Z,11.21
2023-03-28T09:46:02.785Z,12.36
2023-03-28T09:48:50.699Z,12.68
2023-03-28T09:51:21.451Z,12.18
2023-03-28T09:53:48.811Z,12.68
2023-03-28T09:56:28.011Z,10.91
2023-03-28T09:59:03.529Z,10.31
2023-03-28T10:01:47.016Z,10.22
2023-03-28T10:04:19.759Z,7.45
2023-03-28T10:07:13.237Z,7.68
2023-03-28T10:09:55.221Z,7.24
2023-03-28T10:12:32.428Z,5.09
2023-03-28T10:15:00.665Z,3.97
2023-03-28T10:17:46.780Z,3.60
2023-03-28T10:20:21.689Z,3.20
2023-03-28T10:22:56.123Z,2.70
2023-03-28T10:25:45.462Z,3.57
2023-03-28T10:28:33.973Z,6.71
2023-03-28T10:31:03.365Z,9.13
2023-03-28T10:33:46.395Z,10.51
2023-03-28T10:36:34.424Z,9.35
2023-03-28T10:39:27.645Z,10.65
2023-03-28T10:42:13.658Z,10.74
2023-03-28T10:45:04.828Z,10.69
2023-03-28T10:47:36.297Z,11.31
2023-03-28T10:50:19.907Z,11.00
2023-03-28T10:53:20.135Z,10.35
2023-03-28T10:56:06.817Z,10.54
2023-03-28T10:59:00.346Z,10.94
2023-03-28T11:02:13.959Z,11.23
2023-03-28T11:05:28.785Z,10.49
2023-03-28T11:08:19.415Z,10.05
2023-03-28T11:11:01.011Z,10.10
2023-03-28T11:13:55.741Z,8.86
2023-03-28T11:16:51.751Z,9.00
2023-03-28T11:20:22.839Z,8.11
2023-03-28T11:23:31.451Z,7.31
2023-03-28T11:27:08.580Z,7.15
2023-03-28T11:30:00.967Z,5.75
2023-03-28T11:32:39.864Z,4.18
2023-03-28T11:35:28.630Z,3.87
2023-03-28T11:38:11.605Z,2.83
2023-03-28T11:40:51.620Z,2.52
2023-03-28T11:43:50.064Z,1.97
2023-03-28T11:46:39.154Z,2.43
2023-03-28T11:49:26.139Z,2.55
2023-03-28T11:52:07.687Z,2.54
2023-03-28T11:54:42.894Z,2.77
2023-03-28T11:57:10.307Z,2.91
2023-03-28T12:00:26.728Z,3.51
2023-03-28T12:03:16.392Z,4.47
2023-03-28T12:06:05.005Z,4.54
2023-03-28T12:08:47.712Z,4.46
2023-03-28T12:11:23.928Z,3.85
2023-03-28T12:14:28.568Z,4.27
2023-03-28T12:17:11.120Z,3.90
2023-03-28T12:19:41.321Z,4.27
2023-03-28T12:22:41.126Z,4.51
2023-03-28T12:25:10.686Z,5.08
2023-03-28T12:27:42.960Z,4.94
2023-03-28T12:30:58.915Z,5.03
2023-03-28T12:33:48.680Z,3.72
2023-03-28T12:37:04.594Z,3.56
2023-03-28T12:39:35.556Z,3.02
2023-03-28T12:42:13.004Z,2.61
2023-03-28T12:45:03.786Z,2.28
2023-03-28T12:47:47.262Z,2.79
2023-03-28T12:50:31.824Z,2.86
2023-03-28T12:53:00.716Z,3.23
2023-03-28T12:55:35.690Z,3.52
2023-03-28T12:58:36.406Z,4.01
2023-03-28T13:01:49.138Z,3.44
2023-03-28T13:04:36.014Z,3.47
2023-03-28T13:07:18.233Z,3.92
2023-03-28T13:09:49.931Z,3.69
2023-03-28T13:12:24.461Z,4.01
2023-03-28T13:15:21.403Z,4.08
2023-03-28T13:18:17.595Z,3.98
2023-03-28T13:20:47.130Z,3.83
2023-03-28T13:23:17.851Z,3.96
2023-03-28T13:25:55.870Z,3.76
2023-03-28T13:28:53.050Z,3.76
2023-03-28T13:31:25.043Z,3.81
2023-03-28T13:34:01.960Z,4.00
2023-03-28T13:36:32.933Z,4.13
2023-03-28T13:39:25.999Z,3.99
2023-03-28T13:41:56.061Z,3.94
2023-03-28T13:44:40.093Z,3.93
2023-03-28T13:47:14.232Z,3.93
2023-03-28T13:49:48.049Z,4.39
2023-03-28T13:52:20.652Z,4.35
2023-03-28T13:54:54.359Z,4.00
2023-03-28T13:57:26.442Z,4.10
2023-03-28T14:00:07.983Z,4.16
2023-03-28T14:02:50.187Z,3.43
2023-03-28T14:05:29.756Z,2.86
2023-03-28T14:08:15.809Z,3.12
2023-03-28T14:10:45.925Z,2.86
2023-03-28T14:13:22.741Z,3.08
2023-03-28T14:15:52.329Z,2.88
2023-03-28T14:18:46.207Z,3.51
2023-03-28T14:21:14.664Z,3.77
2023-03-28T14:24:25.085Z,3.87
2023-03-28T14:27:06.539Z,3.78
2023-03-28T14:29:33.716Z,3.65
2023-03-28T14:32:02.024Z,3.62
2023-03-28T14:34:38.886Z,3.81
2023-03-28T14:37:15.812Z,3.97
2023-03-28T14:39:43.712Z,3.68
2023-03-28T14:42:20.223Z,3.53
2023-03-28T14:44:52.294Z,3.98
2023-03-28T14:47:30.101Z,4.18
2023-03-28T14:49:58.292Z,3.71
2023-03-28T14:52:30.858Z,4.03
2023-03-28T14:54:59.053Z,3.78
2023-03-28T14:57:27.015Z,4.26
2023-03-28T14:59:57.065Z,4.35
2023-03-28T15:02:35.917Z,4.25
2023-03-28T15:05:08.100Z,3.99
2023-03-28T15:07:37.366Z,3.85
2023-03-28T15:10:21.059Z,4.34
2023-03-28T15:13:03.915Z,4.34
2023-03-28T15:15:42.192Z,4.11
2023-03-28T15:18:19.445Z,4.17
2023-03-28T15:20:52.111Z,3.57
2023-03-28T15:23:29.219Z,3.58
2023-03-28T15:26:01.252Z,3.61
2023-03-28T15:28:30.790Z,3.27
2023-03-28T15:31:00.963Z,3.52
2023-03-28T15:33:33.841Z,3.41
2023-03-28T15:36:13.135Z,3.52
2023-03-28T15:38:41.354Z,3.26
2023-03-28T15:41:24.396Z,2.98
2023-03-28T15:43:54.665Z,3.07
2023-03-28T15:46:29.255Z,2.64
2023-03-28T15:48:59.494Z,2.63
2023-03-28T15:51:28.299Z,2.54
2023-03-28T15:53:58.883Z,2.07
2023-03-28T15:56:29.447Z,2.60
2023-03-28T15:59:02.873Z,2.32
2023-03-28T16:01:32.550Z,2.28
2023-03-28T16:04:20.721Z,2.08
2023-03-28T16:06:48.823Z,2.12
2023-03-28T16:09:21.637Z,2.27
2023-03-28T16:12:03.628Z,2.43
2023-03-28T16:14:52.973Z,2.28
2023-03-28T16:17:30.601Z,2.09
2023-03-28T16:20:22.131Z,2.46
2023-03-28T16:22:50.799Z,2.46
2023-03-28T16:25:18.385Z,2.02
2023-03-28T16:27:45.920Z,1.98
2023-03-28T16:30:21.639Z,1.73
2023-03-28T16:32:48.956Z,1.71
2023-03-28T16:35:16.613Z,1.67
2023-03-28T16:37:43.859Z,1.54
2023-03-28T16:40:11.787Z,1.59
2023-03-28T16:42:39.108Z,1.39
2023-03-28T16:45:11.423Z,1.51
2023-03-28T16:47:39.033Z,1.41
2023-03-28T16:50:08.839Z,1.26
2023-03-28T16:52:40.292Z,1.28
2023-03-28T16:55:14.728Z,1.37
2023-03-28T16:57:43.558Z,1.26
2023-03-28T17:00:18.182Z,1.31
2023-03-28T17:02:47.603Z,1.38
2023-03-28T17:05:16.809Z,1.12
2023-03-28T17:07:44.436Z,1.03
2023-03-28T17:10:12.578Z,1.04
2023-03-28T17:12:40.005Z,0.91
2023-03-28T17:15:09.603Z,0.88
2023-03-28T17:17:37.011Z,0.92
2023-03-28T17:20:05.286Z,0.82
2023-03-28T17:22:32.655Z,0.88
2023-03-28T17:25:02.041Z,0.89
2023-03-28T17:27:29.660Z,0.83
2023-03-28T17:29:57.542Z,0.77
2023-03-28T17:32:25.035Z,0.75
2023-03-28T17:34:52.666Z,0.78
2023-03-28T17:37:22.449Z,0.76
2023-03-28T17:39:51.092Z,0.55
2023-03-28T17:42:18.363Z,0.50
2023-03-28T17:44:45.986Z,0.39
2023-03-28T17:47:13.441Z,0.67
2023-03-28T17:49:41.133Z,0.61
2023-03-28T17:52:10.394Z,0.57
2023-03-28T17:54:38.042Z,0.59
2023-03-28T17:57:06.905Z,0.42
2023-03-28T17:59:34.494Z,0.43
2023-03-28T18:02:03.001Z,0.37
2023-03-28T18:04:30.851Z,0.32
2023-03-28T18:07:16.487Z,0.50
2023-03-28T18:09:45.934Z,0.33
2023-03-28T18:12:13.724Z,0.40
2023-03-28T18:14:41.647Z,0.36
2023-03-28T18:17:09.574Z,0.28
2023-03-28T18:19:37.216Z,0.16
2023-03-28T18:22:04.443Z,0.28
2023-03-28T18:24:31.986Z,0.31
2023-03-28T18:27:00.118Z,0.30
2023-03-28T18:29:27.703Z,0.11
2023-03-28T18:31:55.068Z,0.13
2023-03-28T18:34:22.770Z,0.13
2023-03-28T18:36:51.387Z,0.06
2023-03-28T18:39:19.063Z,0.15
2023-03-28T18:41:46.294Z,0.14
2023-03-28T18:44:13.867Z,0.11
2023-03-28T18:46:41.153Z,0.22
2023-03-28T18:49:09.062Z,0.22
2023-03-28T18:51:36.719Z,0.06
2023-03-28T18:54:04.401Z,0.07
2023-03-28T18:56:32.937Z,0.08
2023-03-28T18:59:02.337Z,0.09
2023-03-28T19:01:29.986Z,0.15
2023-03-28T19:03:57.636Z,0.07
2023-03-28T19:06:24.996Z,0.15
2023-03-28T19:08:52.784Z,0.04
2023-03-28T19:11:20.109Z,0.03
2023-03-28T19:13:48.068Z,0.07
2023-03-28T19:16:17.122Z,0.06
2023-03-28T19:18:46.873Z,-0.15
2023-03-28T19:21:15.244Z,-0.07
2023-03-28T19:23:43.188Z,-0.13
2023-03-28T19:26:13.169Z,-0.13
2023-03-28T19:28:41.919Z,-0.11
2023-03-28T19:31:11.473Z,-0.21
2023-03-28T19:33:42.585Z,-0.36
2023-03-28T19:36:11.593Z,-0.27
2023-03-28T19:38:40.334Z,-0.23
2023-03-28T19:41:15.813Z,-0.29
2023-03-28T19:43:44.267Z,-0.27
2023-03-28T19:46:26.320Z,-0.41
2023-03-28T19:49:00.972Z,-0.36
2023-03-28T19:51:28.729Z,-0.37
2023-03-28T19:53:56.322Z,-0.29
2023-03-28T19:56:23.605Z,-0.36
2023-03-28T19:58:52.193Z,-0.31
2023-03-28T20:01:20.578Z,-0.39
2023-03-28T20:03:52.599Z,-0.37
2023-03-28T20:06:21.586Z,-0.32
2023-03-28T20:08:49.620Z,-0.48
2023-03-28T20:11:17.301Z,-0.42
2023-03-28T20:13:45.055Z,-0.35
2023-03-28T20:16:13.608Z,-0.43
2023-03-28T20:18:41.938Z,-0.51
2023-03-28T20:21:11.941Z,-0.47
2023-03-28T20:23:40.107Z,-0.52
2023-03-28T20:26:19.237Z,-0.55
2023-03-28T20:28:49.997Z,-0.53
2023-03-28T20:31:18.619Z,-0.52
2023-03-28T20:33:46.357Z,-0.68
2023-03-28T20:36:13.666Z,-0.63
2023-03-28T20:38:41.256Z,-0.56
2023-03-28T20:41:16.168Z,-0.56
2023-03-28T20:43:47.312Z,-0.36
2023-03-28T20:46:19.669Z,-0.33
2023-03-28T20:48:53.033Z,-0.45
2023-03-28T20:51:22.558Z,-0.51
2023-03-28T20:53:54.488Z,-0.45
2023-03-28T20:56:23.597Z,-0.46
2023-03-28T20:58:53.358Z,-0.46
2023-03-28T21:01:26.235Z,-0.52
2023-03-28T21:03:57.998Z,-0.51
2023-03-28T21:06:29.443Z,-0.46
2023-03-28T21:09:01.917Z,-0.52
2023-03-28T21:11:31.845Z,-0.40
2023-03-28T21:14:00.443Z,-0.40
2023-03-28T21:16:29.184Z,-0.46
2023-03-28T21:18:56.944Z,-0.49
2023-03-28T21:21:24.337Z,-0.48
2023-03-28T21:23:53.307Z,-0.44
2023-03-28T21:26:22.925Z,-0.45
2023-03-28T21:28:54.780Z,-0.44
2023-03-28T21:31:28.185Z,-0.36
2023-03-28T21:33:58.787Z,-0.39
2023-03-28T21:36:27.257Z,-0.43
2023-03-28T21:38:56.306Z,-0.28
2023-03-28T21:41:24.019Z,-0.29
2023-03-28T21:43:53.784Z,-0.53
2023-03-28T21:46:21.855Z,-0.51
2023-03-28T21:48:50.127Z,-0.52
2023-03-28T21:51:18.317Z,-0.43
2023-03-28T21:53:46.334Z,-0.43
2023-03-28T21:56:14.854Z,-0.54
2023-03-28T21:58:42.540Z,-0.38
2023-03-28T22:01:13.789Z,-0.46
2023-03-28T22:03:41.844Z,-0.32
2023-03-28T22:06:09.808Z,-0.40
2023-03-28T22:08:37.489Z,-0.49
2023-03-28T22:11:14.953Z,-0.50
2023-03-28T22:13:45.109Z,-0.60
2023-03-28T22:16:13.035Z,-0.40
2023-03-28T22:18:41.738Z,-0.31
2023-03-28T22:21:14.071Z,-0.33
2023-03-28T22:23:43.505Z,-0.32
2023-03-28T22:26:12.640Z,-0.35
2023-03-28T22:28:40.241Z,-0.54
2023-03-28T22:31:07.655Z,-0.64
2023-03-28T22:33:35.305Z,-0.42
2023-03-28T22:36:03.553Z,-0.48
2023-03-28T22:38:31.208Z,-0.55
2023-03-28T22:40:58.578Z,-0.59
2023-03-28T22:43:26.750Z,-0.66
2023-03-28T22:45:54.006Z,-0.70
2023-03-28T22:48:22.045Z,-0.53
2023-03-28T22:50:50.356Z,-0.60
2023-03-28T22:53:18.290Z,-0.81
2023-03-28T22:55:45.556Z,-0.56
2023-03-28T22:58:13.093Z,-0.46
2023-03-28T23:00:40.539Z,-0.58
2023-03-28T23:03:08.972Z,-0.37
2023-03-28T23:05:37.293Z,-0.33
2023-03-28T23:08:05.617Z,-0.49
2023-03-28T23:10:34.089Z,-0.51
2023-03-28T23:13:01.620Z,-0.43
2023-03-28T23:15:28.928Z,-0.50
2023-03-28T23:17:56.622Z,-0.49
2023-03-28T23:20:24.735Z,-0.49
2023-03-28T23:22:53.680Z,-0.60
2023-03-28T23:25:22.238Z,-0.61
2023-03-28T23:27:49.918Z,-0.47
2023-03-28T23:30:17.261Z,-0.59
2023-03-28T23:32:44.913Z,-0.67
2023-03-28T23:35:12.344Z,-0.43
2023-03-28T23:37:40.343Z,-0.64
2023-03-28T23:40:15.095Z,-0.71
2023-03-28T23:42:44.757Z,-0.85
2023-03-28T23:45:14.978Z,-0.70
2023-03-28T23:47:44.290Z,-0.89
2023-03-28T23:50:12.306Z,-0.68
2023-03-28T23:52:40.161Z,-0.74
2023-03-28T23:55:08.865Z,-0.71
2023-03-28T23:57:37.319Z,-0.87
